Chula Vista, CA

10:29 AM PDT on October 25, 2014 (GMT -0700)
North Island Naval Air Station | Change Station
CLOSE
Current Station
Airport
Location: North Island,
Elevation: 23 ft
Nearby Weather Stations
Active Advisory: Beach Hazard Statement

Elev 23 ft 32.69 °N, 117.21 °W | Updated 37 minutes ago

Mostly Cloudy
Mostly Cloudy
70 °F
Feels Like 70 °F
N
7
Wind Variable Wind from SE

Today
High -- | Low -- °F
--% Chance of Precip.
Yesterday
High -- | Low -- °F
Precip. -- in
7:00 AM 6:04 PM
Waxing Crescent, 4% visible
Pressure 30.06 in
Visibility 7.0 miles
Clouds Mostly Cloudy 1200 ft
Mostly Cloudy 10000 ft
Dew Point 63 °F
Humidity 78%
Rainfall 0.00 in
Snow Depth Not available.
UV 2 out of 12
Pollen 3.90 out of 12
Ozone Good
PM2.5 Moderate
Flu Activity Sporadic
METAR KNZY 251652Z 13006KT 7SM BKN012 BKN100 21/17 A3006 RMK AO2 SLP178 T02110172 $

More Conditions Fewer Conditions

Pressure 30.06 in
Visibility 7.0 miles
Clouds Mostly Cloudy 1200 ft
Mostly Cloudy 10000 ft
Dew Point 63 °F
Humidity 78%
Rainfall 0.00 in
Snow Depth Not available.
UV 2 out of 12
Pollen 3.90 out of 12
Ozone Good
PM2.5 Moderate
Flu Activity Sporadic
METAR KNZY 251652Z 13006KT 7SM BKN012 BKN100 21/17 A3006 RMK AO2 SLP178 T02110172 $

More Conditions Fewer Conditions

10-Day Weather Forecast

Almanac

Astronomy

Oct. 25, 2014 Rise Set
Actual Time 7:00 AM PDT 6:04 PM PDT
Civil Twilight 6:34 AM PDT 6:29 PM PDT
Nautical Twilight 6:06 AM PDT 6:58 PM PDT
Astronomical Twilight 5:37 AM PDT 7:26 PM PDT
Moon 8:39 AM PDT 7:35 PM PDT
Length of Visible Light 11h 54m
Length of Day
11h 04m
Tomorrow will be 1m 50s shorter.
Waxing Crescent, 4% of the Moon is Illuminated
Today
Waxing Crescent
Oct 30
First Quarter
Nov 6
Full
Nov 14
Last Quarter
Nov 22
New

Today's Extremes

State Highs State Lows

Community

WunderPhotos

Upload Photos

1,764,918 photos uploaded!

Nearby

Air Quality

  Air Quality AQ Index Pollutant
Yesterday Moderate
OZONE
Yesterday Moderate
PM2.5
Current Moderate
PM2.5
Current Good
OZONE
Saturday Moderate
PM2.5
Saturday Good
OZONE
Sunday Good
PM2.5
Sunday Good
OZONE
Monday Good
PM2.5
Monday Good
OZONE

Snow Depth

Station Depth Elevation
Virginia Lakes Ridge 0 in 9200 ft
Leavitt Lake 1 in 9400 ft
Leavitt Meadows 0 in 7200 ft
Sonora Pass 0 in 8800 ft
Summit Meadow 1 in 9122 ft

Earthquake Activity

City Distance Mag. Time & Date
Running Springs, California 115 miles 3.1 4:07 AM PDT
2014-10-25
Maneadero, Mexico 99 miles 2.5 7:44 AM PDT
2014-10-24
San Felipe, Mexico 120 miles 3.0 11:00 PM PDT
2014-10-23
Brea, California 102 miles 2.9 3:35 PM PDT
2014-10-23
Minimum magnitude displayed is 2.5.

Coastal Water Temperatures

Place Temperature
La Jolla, CA 70.0 °F
San Diego, CA 73.9 °F

Nearby Weather Stations